createdAt,value
2023-03-06T00:03:18.685Z,100184.13
2023-03-06T00:08:21.515Z,100177.22
2023-03-06T00:13:24.964Z,100173.13
2023-03-06T00:18:29.102Z,100169.16
2023-03-06T00:23:32.099Z,100176.22
2023-03-06T00:28:34.890Z,100174.84
2023-03-06T00:33:38.959Z,100171.28
2023-03-06T00:38:41.676Z,100176.41
2023-03-06T00:43:44.756Z,100174.34
2023-03-06T00:48:49.151Z,100175.66
2023-03-06T00:53:51.910Z,100182.53
2023-03-06T00:58:54.656Z,100177.19
2023-03-06T01:03:59.116Z,100175.53
2023-03-06T01:09:01.867Z,100180.41
2023-03-06T01:14:04.707Z,100169.97
2023-03-06T01:19:08.795Z,100168.97
2023-03-06T01:24:11.966Z,100161.28
2023-03-06T01:29:14.774Z,100154.53
2023-03-06T01:34:18.879Z,100143.66
2023-03-06T01:39:21.645Z,100150.78
2023-03-06T01:44:24.389Z,100138.94
2023-03-06T01:49:32.466Z,100133.59
2023-03-06T01:54:39.124Z,100131.56
2023-03-06T01:59:43.588Z,100140.28
2023-03-06T02:04:48.825Z,100133.81
2023-03-06T02:09:51.571Z,100123.81
2023-03-06T02:14:54.778Z,100120.25
2023-03-06T02:20:08.436Z,100129.94
2023-03-06T02:25:24.654Z,100127.75
2023-03-06T02:30:28.979Z,100124.09
2023-03-06T02:35:33.687Z,100115.47
2023-03-06T02:40:38.055Z,100109.72
2023-03-06T02:45:45.184Z,100102.94
2023-03-06T02:50:48.884Z,100103.72
2023-03-06T02:55:53.074Z,100099.13
2023-03-06T03:00:57.010Z,100085.38
2023-03-06T03:05:59.860Z,100075.91
2023-03-06T03:11:09.165Z,100063.50
2023-03-06T03:16:16.441Z,100068.44
2023-03-06T03:21:19.795Z,100060.19
2023-03-06T03:26:25.631Z,100052.50
2023-03-06T03:31:57.345Z,100055.44
2023-03-06T03:37:01.996Z,100047.56
2023-03-06T03:42:06.782Z,100045.63
2023-03-06T03:47:09.731Z,100042.97
2023-03-06T03:52:12.705Z,100039.88
2023-03-06T03:57:17.869Z,100031.91
2023-03-06T04:02:26.119Z,100035.63
2023-03-06T04:07:54.836Z,100032.03
2023-03-06T04:12:59.015Z,100037.41
2023-03-06T04:18:03.252Z,100029.38
2023-03-06T04:23:06.361Z,100027.06
2023-03-06T04:28:12.195Z,100020.66
2023-03-06T04:33:15.720Z,100017.44
2023-03-06T04:38:19.409Z,100019.13
2023-03-06T04:43:23.730Z,100013.09
2023-03-06T04:48:26.411Z,100010.69
2023-03-06T04:53:29.355Z,100000.28
2023-03-06T04:58:33.599Z,100010.88
2023-03-06T05:03:36.365Z,99995.41
2023-03-06T05:08:39.157Z,100000.56
2023-03-06T05:13:43.401Z,99997.97
2023-03-06T05:18:46.103Z,99991.22
2023-03-06T05:23:48.848Z,99985.88
2023-03-06T05:28:53.800Z,99996.63
2023-03-06T05:33:58.275Z,99991.09
2023-03-06T05:39:01.108Z,99984.72
2023-03-06T05:44:05.216Z,99977.28
2023-03-06T05:49:08.196Z,99976.91
2023-03-06T05:54:10.947Z,99988.84
2023-03-06T05:59:15.629Z,99981.59
2023-03-06T06:04:18.424Z,99971.81
2023-03-06T06:09:22.374Z,99978.44
2023-03-06T06:14:26.873Z,99977.94
2023-03-06T06:19:30.665Z,99976.72
2023-03-06T06:24:33.804Z,99984.41
2023-03-06T06:29:38.337Z,99985.97
2023-03-06T06:34:41.048Z,99975.91
2023-03-06T06:39:43.762Z,99985.69
2023-03-06T06:44:47.877Z,99983.59
2023-03-06T06:49:51.309Z,99978.69
2023-03-06T06:54:54.260Z,99984.44
2023-03-06T06:59:58.370Z,99980.53
2023-03-06T07:05:04.535Z,99971.72
2023-03-06T07:10:13.220Z,99964.28
2023-03-06T07:15:18.118Z,99972.78
2023-03-06T07:20:21.187Z,99986.06
2023-03-06T07:25:23.919Z,99980.06
2023-03-06T07:30:28.104Z,99986.63
2023-03-06T07:35:31.196Z,99987.19
2023-03-06T07:40:34.032Z,99995.88
2023-03-06T07:45:38.297Z,99989.31
2023-03-06T07:50:41.841Z,99986.47
2023-03-06T07:55:44.616Z,99993.03
2023-03-06T08:00:48.901Z,99989.47
2023-03-06T08:05:51.710Z,99992.19
2023-03-06T08:10:54.518Z,99994.34
2023-03-06T08:15:59.762Z,99995.81
2023-03-06T08:21:04.106Z,99996.16
2023-03-06T08:26:08.255Z,100002.09
2023-03-06T08:31:14.590Z,100009.38
2023-03-06T08:36:17.553Z,100007.47
2023-03-06T08:41:21.027Z,100015.34
2023-03-06T08:46:27.285Z,100007.72
2023-03-06T08:51:30.167Z,100010.75
2023-03-06T08:56:35.253Z,100018.84
2023-03-06T09:01:39.688Z,100010.19
2023-03-06T09:06:44.065Z,100019.06
2023-03-06T09:11:46.928Z,100019.97
2023-03-06T09:16:51.068Z,100021.38
2023-03-06T09:21:54.059Z,100022.66
2023-03-06T09:26:56.834Z,100015.25
2023-03-06T09:32:01.164Z,100012.50
2023-03-06T09:37:04.157Z,100017.63
2023-03-06T09:42:12.139Z,100027.03
2023-03-06T09:47:36.137Z,100025.81
2023-03-06T09:52:46.961Z,100025.91
2023-03-06T09:57:55.859Z,100014.22
2023-03-06T10:03:11.407Z,100018.09
2023-03-06T10:08:22.435Z,100018.34
2023-03-06T10:13:29.476Z,100019.22
2023-03-06T10:18:38.305Z,100020.19
2023-03-06T10:23:51.304Z,100015.38
2023-03-06T10:29:06.327Z,100009.41
2023-03-06T10:34:21.895Z,100002.78
2023-03-06T10:39:24.649Z,99990.91
2023-03-06T10:44:27.370Z,99993.50
2023-03-06T10:49:34.744Z,99973.91
2023-03-06T10:54:40.136Z,99978.66
2023-03-06T10:59:52.523Z,99983.00
2023-03-06T11:04:58.266Z,99979.78
2023-03-06T11:10:06.100Z,99967.56
2023-03-06T11:15:18.411Z,99983.09
2023-03-06T11:20:25.079Z,99983.19
2023-03-06T11:25:33.407Z,99958.53
2023-03-06T11:30:45.140Z,99963.31
2023-03-06T11:35:58.386Z,99951.63
2023-03-06T11:41:06.830Z,99952.94
2023-03-06T11:46:15.100Z,99956.16
2023-03-06T11:51:25.739Z,99945.41
2023-03-06T11:56:37.347Z,99952.06
2023-03-06T12:01:48.363Z,99939.88
2023-03-06T12:07:03.198Z,99937.91
2023-03-06T12:12:23.194Z,99937.91
2023-03-06T12:17:35.084Z,99940.56
2023-03-06T12:22:57.496Z,99943.44
2023-03-06T12:28:23.160Z,99926.81
2023-03-06T12:33:33.667Z,99930.75
2023-03-06T12:38:52.991Z,99928.38
2023-03-06T12:44:28.459Z,99912.31
2023-03-06T12:49:34.523Z,99921.56
2023-03-06T12:54:42.073Z,99920.00
2023-03-06T12:59:47.899Z,99906.44
2023-03-06T13:05:23.191Z,99907.13
2023-03-06T13:10:31.607Z,99910.28
2023-03-06T13:15:45.809Z,99905.63
2023-03-06T13:20:50.151Z,99902.75
2023-03-06T13:25:54.351Z,99904.94
2023-03-06T13:30:57.143Z,99906.13
2023-03-06T13:36:00.681Z,99891.69
2023-03-06T13:41:50.996Z,99895.25
2023-03-06T13:47:00.689Z,99897.13
2023-03-06T13:52:09.524Z,99893.16
2023-03-06T13:57:38.427Z,99896.75
2023-03-06T14:02:56.746Z,99892.06
2023-03-06T14:08:12.788Z,99890.47
2023-03-06T14:13:19.614Z,99885.72
2023-03-06T14:18:26.288Z,99873.19
2023-03-06T14:23:32.201Z,99864.00
2023-03-06T14:28:36.567Z,99864.44
2023-03-06T14:33:45.189Z,99858.56
2023-03-06T14:38:50.871Z,99860.13
2023-03-06T14:43:54.060Z,99853.72
2023-03-06T14:49:00.199Z,99841.94
2023-03-06T14:54:03.732Z,99844.91
2023-03-06T14:59:09.653Z,99849.66
2023-03-06T15:04:21.120Z,99847.56
2023-03-06T15:09:28.738Z,99844.28
2023-03-06T15:14:35.410Z,99845.41
2023-03-06T15:19:41.384Z,99836.38
2023-03-06T15:24:44.122Z,99828.72
2023-03-06T15:29:46.869Z,99834.97
2023-03-06T15:35:30.612Z,99830.81
2023-03-06T15:40:33.580Z,99821.19
2023-03-06T15:45:36.463Z,99814.06
2023-03-06T15:50:40.651Z,99804.69
2023-03-06T15:55:43.745Z,99800.69
2023-03-06T16:00:46.590Z,99809.63
2023-03-06T16:05:50.681Z,99802.38
2023-03-06T16:10:53.393Z,99804.44
2023-03-06T16:15:57.079Z,99804.47
2023-03-06T16:21:01.146Z,99800.06
2023-03-06T16:26:04.225Z,99801.22
2023-03-06T16:31:06.952Z,99806.56
2023-03-06T16:36:16.567Z,99798.53
2023-03-06T16:41:20.698Z,99793.09
2023-03-06T16:46:26.219Z,99796.44
2023-03-06T16:51:40.740Z,99791.00
2023-03-06T16:56:43.832Z,99789.59
2023-03-06T17:01:46.792Z,99794.25
2023-03-06T17:06:52.749Z,99786.69
2023-03-06T17:11:55.752Z,99783.59
2023-03-06T17:16:58.723Z,99793.56
2023-03-06T17:22:02.873Z,99781.91
2023-03-06T17:27:05.701Z,99785.81
2023-03-06T17:32:09.144Z,99782.19
2023-03-06T17:37:13.313Z,99777.88
2023-03-06T17:42:16.645Z,99780.81
2023-03-06T17:47:19.534Z,99776.59
2023-03-06T17:52:23.692Z,99765.06
2023-03-06T17:57:26.516Z,99769.19
2023-03-06T18:02:29.272Z,99773.91
2023-03-06T18:07:33.360Z,99764.06
2023-03-06T18:12:36.072Z,99764.66
2023-03-06T18:17:38.881Z,99750.97
2023-03-06T18:22:42.938Z,99748.38
2023-03-06T18:27:45.693Z,99738.41
2023-03-06T18:32:48.466Z,99723.97
2023-03-06T18:37:53.030Z,99716.03
2023-03-06T18:42:55.882Z,99714.72
2023-03-06T18:47:58.619Z,99705.84
2023-03-06T18:53:02.769Z,99689.34
2023-03-06T18:58:05.516Z,99687.38
2023-03-06T19:03:08.367Z,99685.84
2023-03-06T19:08:13.426Z,99685.09
2023-03-06T19:13:16.452Z,99671.50
2023-03-06T19:18:19.383Z,99678.53
2023-03-06T19:23:24.763Z,99667.84
2023-03-06T19:28:28.324Z,99658.47
2023-03-06T19:33:31.126Z,99643.34
2023-03-06T19:38:35.419Z,99646.66
2023-03-06T19:43:38.355Z,99639.19
2023-03-06T19:48:41.419Z,99630.19
2023-03-06T19:53:45.502Z,99625.50
2023-03-06T19:58:48.914Z,99621.53
2023-03-06T20:03:58.283Z,99603.25
2023-03-06T20:09:04.162Z,99601.28
2023-03-06T20:14:08.641Z,99584.22
2023-03-06T20:19:12.006Z,99583.88
2023-03-06T20:24:17.985Z,99562.91
2023-03-06T20:29:20.793Z,99555.38
2023-03-06T20:34:24.189Z,99547.38
2023-03-06T20:39:28.314Z,99535.03
2023-03-06T20:44:31.380Z,99532.16
2023-03-06T20:49:34.334Z,99518.13
2023-03-06T20:54:38.430Z,99506.59
2023-03-06T20:59:41.249Z,99500.53
2023-03-06T21:04:44.310Z,99485.66
2023-03-06T21:09:49.740Z,99478.63
2023-03-06T21:14:52.618Z,99460.19
2023-03-06T21:19:55.403Z,99450.66
2023-03-06T21:24:59.510Z,99442.22
2023-03-06T21:30:02.272Z,99435.00
2023-03-06T21:35:05.286Z,99425.19
2023-03-06T21:40:11.246Z,99415.88
2023-03-06T21:45:14.048Z,99406.41
2023-03-06T21:50:16.868Z,99393.38
2023-03-06T21:55:21.116Z,99383.00
2023-03-06T22:00:25.773Z,99376.47
2023-03-06T22:05:28.614Z,99364.44
2023-03-06T22:10:32.791Z,99361.28
2023-03-06T22:15:35.510Z,99331.53
2023-03-06T22:20:40.365Z,99325.06
2023-03-06T22:25:44.486Z,99311.97
2023-03-06T22:30:47.317Z,99302.34
2023-03-06T22:35:50.291Z,99290.25
2023-03-06T22:40:57.339Z,99281.75
2023-03-06T22:46:02.053Z,99268.53
2023-03-06T22:51:05.933Z,99251.88
2023-03-06T22:56:12.820Z,99251.97
2023-03-06T23:01:17.764Z,99243.97
2023-03-06T23:06:22.694Z,99227.50
2023-03-06T23:11:27.945Z,99210.94
2023-03-06T23:16:49.001Z,99190.69
2023-03-06T23:22:10.616Z,99180.94
2023-03-06T23:27:33.320Z,99158.06
2023-03-06T23:32:36.219Z,99149.47
2023-03-06T23:37:38.964Z,99146.63
2023-03-06T23:42:43.264Z,99131.03
2023-03-06T23:47:46.024Z,99114.47
2023-03-06T23:52:48.904Z,99120.56
2023-03-06T23:57:53.001Z,99102.72
